Date,TemperatureHighF,TemperatureAvgF,TemperatureLowF,DewpointHighF,DewpointAvgF,DewpointLowF,HumidityHigh,HumidityAvg,HumidityLow,PressureMaxIn,PressureMinIn,WindSpeedMaxMPH,WindSpeedAvgMPH,GustSpeedMaxMPH,PrecipitationSumIn
2013-1-1,35.4,24.9,9.7,24.7,14.2,0.4,83,64,42,29.85,29.64,18,8,24,0.00
2013-1-2,25.7,12.3,0.9,15.4,4.4,-13.3,79,70,50,30.03,28.14,13,3,17,0.00
2013-1-3,23.5,8.6,-4.0,6.7,-3.2,-10.8,75,60,29,30.06,29.91,8,2,12,0.00
2013-1-4,39.2,26.4,13.6,22.9,16.9,0.4,86,68,48,29.91,29.76,15,4,21,0.01
2013-1-5,40.3,29.4,20.1,24.0,18.1,12.2,77,63,43,30.17,29.79,17,6,31,0.04
2013-1-6,41.0,29.1,19.8,28.4,22.3,13.3,90,76,58,30.11,29.88,55,3,55,0.00
2013-1-7,36.5,28.0,17.6,25.7,18.1,10.2,88,68,42,30.32,29.91,8,2,9,0.00
2013-1-8,43.0,30.3,18.5,26.2,20.9,12.8,90,69,47,30.29,30.20,9,3,13,0.00
2013-1-9,39.2,30.4,20.1,30.0,22.9,13.4,91,74,50,30.32,29.97,51,9,61,0.00
2013-1-10,44.6,35.1,27.5,27.3,22.5,11.4,77,61,42,30.47,30.03,18,8,23,0.01
2013-1-11,36.7,29.7,23.2,31.2,23.9,14.6,97,80,50,30.47,30.14,6,1,13,0.01
2013-1-12,41.7,36.1,32.2,39.1,34.7,15.9,98,95,50,30.14,30.08,40,1,51,0.21
2013-1-13,42.3,39.1,35.2,42.0,38.7,19.6,99,98,50,30.79,29.97,43,4,54,0.18
2013-1-14,51.3,41.0,32.0,49.9,37.8,25.5,99,89,65,30.23,29.85,13,4,13,0.02
2013-1-15,38.5,31.5,25.3,29.3,22.9,10.6,86,71,50,30.26,30.14,55,2,55,0.00
2013-1-16,31.3,28.5,25.5,28.2,25.7,22.1,96,89,80,30.17,29.76,37,1,50,0.00
2013-1-17,39.0,29.2,21.2,30.9,23.4,8.6,96,80,50,30.03,29.79,12,2,15,0.01
2013-1-18,24.6,15.9,7.5,11.9,1.2,-5.8,67,53,32,30.32,26.07,15,3,16,0.00
2013-1-19,43.0,30.3,16.5,27.6,17.8,3.8,79,60,43,30.23,29.79,15,7,23,0.28
2013-1-20,44.4,33.2,20.8,30.9,22.2,8.6,82,65,38,29.88,29.52,20,10,29,0.01
2013-1-21,25.2,18.6,12.9,13.8,7.5,2.0,85,63,45,30.00,29.73,10,2,14,0.00
2013-1-22,23.9,13.5,3.9,11.9,3.0,-7.4,87,64,37,29.97,29.67,15,4,15,0.00
2013-1-23,14.5,4.5,-3.3,-3.6,-10.5,-13.9,73,50,29,30.03,29.94,12,5,12,0.00
2013-1-24,18.5,5.1,-4.0,-4.6,-11.1,-14.2,68,48,29,30.11,29.97,28,6,28,0.00
2013-1-25,21.7,10.2,-0.8,5.0,-7.3,-12.6,73,46,26,30.20,29.97,29,3,30,0.00
2013-1-26,24.3,11.6,4.6,7.1,-1.1,-8.8,82,59,32,30.14,29.91,43,5,54,0.02
2013-1-27,29.7,14.7,5.5,5.5,-0.7,-3.2,74,52,28,30.38,30.14,7,7,7,0.00
2013-1-28,24.4,17.8,9.1,19.6,10.4,-1.0,91,73,52,30.35,29.94,7,7,7,0.00
2013-1-29,33.4,26.9,20.5,29.7,24.0,13.3,96,89,50,30.11,29.94,9,6,13,0.03
2013-1-30,53.2,40.8,30.9,51.8,40.0,29.9,99,97,50,30.06,29.23,16,4,28,0.47
2013-1-31,53.8,36.4,22.6,52.4,29.5,15.2,97,77,54,29.55,28.96,21,12,29,1.20
2013-2-1,84.2,22.1,14.7,47.6,8.9,2.1,81,58,28,30.00,29.55,16,8,23,0.00
2013-2-2,84.2,19.1,8.6,47.6,4.9,-0.8,76,54,28,30.11,29.94,10,4,16,0.00
2013-2-3,37.4,20.9,13.1,15.5,12.6,4.7,84,71,25,30.20,29.67,8,0,26,0.01
2013-2-4,37.4,18.6,11.8,13.7,7.2,1.7,80,62,25,29.85,29.64,17,5,25,0.00
2013-2-5,37.4,20.3,11.7,16.2,8.8,1.7,82,62,25,29.94,29.85,5,5,5,0.00
2013-2-6,37.4,24.2,16.5,24.2,14.0,2.1,89,67,25,30.20,29.85,5,5,5,0.03
2013-2-7,37.4,19.6,9.1,5.4,0.7,-1.6,67,45,25,30.41,29.61,29,4,53,0.00
2013-2-8,23.7,18.4,12.9,19.9,11.7,-0.3,91,77,41,30.38,29.64,16,6,18,0.00
2013-2-9,37.4,13.3,7.9,15.5,8.7,-0.3,92,82,66,30.14,29.64,23,12,29,0.00
2013-2-10,38.5,22.6,3.7,9.4,2.9,-2.7,75,46,23,30.35,30.14,9,3,15,0.00
2013-2-11,36.5,28.7,15.1,35.7,24.5,3.3,98,85,56,30.23,29.61,15,1,50,0.00
2013-2-12,41.2,33.0,29.1,33.0,26.1,4.7,97,76,25,29.82,29.61,0,0,0,0.00
2013-2-13,44.4,32.0,26.8,27.5,21.2,17.8,79,65,43,29.82,29.67,0,0,0,0.01
2013-2-14,46.9,32.5,21.0,27.6,18.7,4.7,82,59,25,30.50,29.67,6,1,6,0.00
2013-2-15,51.6,35.6,25.0,31.7,25.0,17.9,94,67,41,29.94,29.85,12,3,14,0.09
2013-2-16,42.8,31.5,16.2,27.5,20.7,3.6,89,66,46,29.91,29.70,9,3,14,0.04
2013-2-17,22.5,15.9,9.7,6.6,1.6,-2.9,57,52,48,29.70,29.44,22,8,24,0.00
2013-2-18,30.4,17.2,6.1,4.5,-2.1,-4.2,85,44,24,30.06,29.67,16,9,16,0.00
2013-2-19,43.7,30.7,13.5,37.2,19.4,-1.1,95,65,32,30.08,29.55,7,6,12,0.20
2013-2-20,34.3,26.2,19.0,32.6,16.5,9.4,94,67,45,29.73,29.52,17,8,23,0.03
2013-2-21,32.9,22.6,16.5,15.0,10.7,7.5,80,62,37,30.17,29.70,17,9,21,0.00
2013-2-22,43.7,29.8,17.2,24.6,16.7,13.2,88,61,35,30.32,30.17,17,4,17,0.00
2013-2-23,31.5,29.3,27.3,29.0,25.1,18.5,95,84,68,30.23,29.88,7,2,8,0.01
2013-2-24,35.1,32.0,29.7,31.3,29.8,28.1,97,92,85,29.88,29.70,3,1,6,0.00
2013-2-25,37.6,31.5,24.1,31.3,28.2,22.9,95,88,76,30.17,29.85,6,0,8,0.27
2013-2-26,43.2,33.1,27.5,34.9,27.7,24.3,95,81,62,30.26,27.55,5,2,7,0.31
2013-2-27,35.6,31.9,29.7,34.3,30.3,26.4,97,94,83,30.08,29.58,16,8,21,0.75
2013-2-28,46.0,33.1,28.4,44.1,30.7,27.2,98,91,76,29.58,29.52,5,0,7,0.44
2013-3-1,43.3,34.9,28.6,35.3,28.4,23.6,97,78,61,29.64,29.52,9,4,17,0.13
2013-3-2,38.5,31.5,26.8,30.4,24.2,20.9,95,75,60,29.64,29.61,9,5,14,0.11
2013-3-3,37.2,29.7,24.1,27.6,23.1,20.0,88,77,63,29.61,29.55,54,6,55,0.13
2013-3-4,37.8,30.5,22.3,23.7,20.1,16.3,88,67,49,29.73,29.58,18,9,21,0.04
2013-3-5,50.2,31.8,22.8,27.4,22.3,18.0,84,70,40,30.03,29.73,20,6,29,0.03
2013-3-6,34.9,31.5,28.8,30.7,28.0,24.0,95,87,76,30.06,30.00,13,6,18,0.09
2013-3-7,34.3,29.6,26.2,28.4,25.8,22.9,95,86,67,30.06,29.97,9,5,15,0.07
2013-3-8,38.3,31.2,26.8,29.9,26.2,21.8,95,82,66,30.14,29.91,10,3,16,0.01
2013-3-9,56.3,39.1,24.4,30.6,19.9,12.7,82,52,20,30.29,30.11,8,3,12,0.04
2013-3-10,53.1,37.8,22.3,30.4,24.2,18.9,89,61,32,30.32,30.20,7,2,9,0.11
2013-3-11,46.2,37.3,21.6,37.1,31.3,20.1,94,80,59,30.23,30.08,9,5,13,0.07
2013-3-12,47.8,43.8,37.2,47.4,43.0,36.4,99,97,91,30.08,29.67,9,5,14,0.75
2013-3-13,49.1,38.1,29.8,42.9,26.5,16.3,99,67,33,29.76,29.70,12,5,15,0.01
2013-3-14,37.0,25.8,16.5,25.4,12.4,4.3,95,57,40,29.79,29.67,15,7,22,0.00
2013-3-15,39.4,26.6,12.0,25.8,13.7,4.1,88,61,28,29.79,29.58,12,5,15,0.00
2013-3-16,35.4,27.4,18.1,23.9,15.1,-31.6,85,62,5,29.82,29.64,7,2,12,0.00
2013-3-17,34.9,24.7,17.4,15.0,7.7,-31.6,75,51,5,30.23,29.82,17,4,21,0.03
2013-3-18,39.2,24.2,8.1,19.3,4.8,-1.8,77,46,22,30.35,30.11,7,2,10,0.00
2013-3-19,32.9,27.9,23.7,29.6,23.7,-31.6,92,86,5,30.11,29.61,14,4,22,0.01
2013-3-20,36.1,26.2,18.3,22.8,18.2,-31.6,90,73,5,29.76,29.64,13,3,22,0.00
2013-3-21,40.8,27.4,16.3,18.9,13.3,-31.6,81,58,5,29.73,29.55,7,2,13,0.00
2013-3-22,38.5,27.1,17.6,20.2,15.2,-31.6,74,62,43,29.70,29.58,12,6,17,0.00
2013-3-23,38.7,29.4,20.5,21.8,17.3,13.9,81,62,41,29.76,29.61,16,7,23,0.04
2013-3-24,43.7,33.4,26.1,23.6,20.2,17.2,72,59,42,29.82,29.70,10,5,16,0.24
2013-3-25,45.3,33.7,26.1,27.2,22.3,-31.6,73,64,5,29.73,29.50,9,3,11,0.01
2013-3-26,45.7,35.3,30.0,29.2,23.1,17.4,79,62,39,29.76,29.55,13,3,13,0.00
2013-3-27,48.7,36.6,26.2,26.4,21.9,16.5,70,56,35,29.85,29.73,12,5,16,0.00
2013-3-28,47.8,38.2,31.3,34.2,28.7,-31.6,89,70,5,30.00,29.85,8,3,10,0.00
2013-3-29,52.3,40.7,32.0,34.2,28.6,-31.6,82,64,5,30.03,29.97,9,5,13,0.00
2013-3-30,52.0,39.6,29.7,29.1,21.6,12.6,82,53,27,30.06,30.00,9,4,13,0.00
2013-3-31,54.7,39.4,24.8,34.7,23.8,-31.6,86,57,5,30.08,29.70,15,5,22,0.09
2013-4-1,54.9,38.5,26.8,43.2,30.8,-31.6,92,76,5,29.76,29.52,16,5,23,0.31
2013-4-2,35.4,27.7,21.7,18.6,11.9,7.8,66,52,35,29.88,29.76,17,10,25,0.01
2013-4-3,40.6,30.1,22.1,14.5,11.5,-31.6,64,48,5,30.11,29.85,15,10,23,0.00
2013-4-4,51.4,35.8,21.9,21.4,14.9,-31.6,69,45,5,30.23,29.97,9,5,16,0.00
2013-4-5,56.1,40.3,30.0,28.5,22.8,-31.6,82,54,5,29.97,29.67,13,7,20,0.00
2013-4-6,40.3,29.8,23.7,22.6,10.3,2.8,68,46,24,30.26,29.85,14,6,21,0.00
2013-4-7,54.7,38.1,23.5,36.0,20.2,-31.6,86,51,5,30.26,29.94,18,7,24,0.01
2013-4-8,60.8,48.1,36.9,37.5,33.4,28.2,91,61,30,30.06,29.94,9,3,13,0.00
2013-4-9,63.7,50.7,39.6,50.3,40.0,33.0,90,68,48,30.03,29.85,13,3,21,0.13
2013-4-10,61.0,49.9,43.0,50.0,44.4,-31.6,94,82,64,29.97,29.85,3,1,6,0.85
2013-4-11,49.5,41.5,33.8,43.5,35.5,25.6,95,80,54,30.08,29.85,7,2,12,0.10
2013-4-12,34.0,31.6,29.8,30.7,29.3,-31.6,95,92,5,30.08,29.76,10,2,12,0.21
2013-4-13,53.6,39.6,30.4,40.8,33.1,-31.6,95,79,48,29.91,29.76,9,2,14,0.62
2013-4-14,50.0,39.8,30.9,34.3,28.8,22.6,89,67,41,30.17,29.88,14,5,22,0.01
2013-4-15,56.8,42.4,26.6,33.8,28.4,-31.6,86,61,5,30.32,30.17,8,2,13,0.00
2013-4-16,66.9,48.3,32.0,48.4,38.4,-31.6,91,70,5,30.32,30.03,17,8,24,0.03
2013-4-17,61.7,50.7,38.7,48.8,33.3,25.4,93,56,27,30.29,30.06,13,5,17,0.03
2013-4-18,63.7,49.2,34.2,41.7,29.6,24.1,78,49,31,30.38,30.11,12,6,16,0.00
2013-4-19,70.5,57.7,47.7,59.1,53.2,41.2,96,85,65,30.11,29.64,20,10,24,0.14
2013-4-20,59.7,45.4,32.0,58.3,34.7,-31.6,96,69,5,30.20,29.64,13,8,18,0.55
2013-4-21,50.0,37.2,26.8,22.3,17.6,13.8,68,47,25,30.59,30.20,13,4,17,0.00
2013-4-22,55.0,39.9,27.1,26.5,21.2,16.0,76,50,27,30.68,30.53,12,5,17,0.00
2013-4-23,39.0,35.1,31.3,35.2,30.9,25.3,95,85,75,30.53,30.08,7,4,11,0.00
2013-4-24,71.6,52.9,36.7,47.4,40.5,35.4,96,68,31,30.08,29.79,12,6,16,0.00
2013-4-25,58.3,49.0,32.0,46.2,31.1,-31.6,92,54,5,30.23,29.79,12,6,20,0.01
2013-4-26,63.3,48.1,32.0,33.0,26.9,-31.6,65,46,5,30.38,30.23,8,2,12,0.00
2013-4-27,65.8,50.8,32.0,38.3,31.3,-31.6,80,51,5,30.38,30.23,8,1,10,0.00
2013-4-28,70.0,54.1,35.2,41.6,33.0,28.4,83,49,25,30.29,30.14,8,2,11,0.00
2013-4-29,70.0,54.4,43.3,46.6,33.7,24.3,70,47,30,30.23,30.17,10,4,15,0.00
2013-4-30,71.6,57.2,32.0,34.8,27.7,-31.6,56,34,5,30.32,30.20,8,2,10,0.00
2013-5-1,73.9,56.6,36.7,33.4,28.0,-31.6,64,37,19,30.44,30.32,8,2,14,0.00
2013-5-2,79.7,58.0,32.0,46.1,34.8,-31.6,76,46,5,30.44,30.29,9,3,14,0.00
2013-5-3,66.9,51.9,36.0,41.3,36.0,28.8,79,57,36,30.47,30.35,8,3,13,0.00
2013-5-4,70.0,53.8,38.5,46.7,35.1,19.7,90,55,23,30.35,27.31,9,3,13,0.00
2013-5-5,70.3,50.9,32.0,38.1,30.8,-31.6,86,52,5,30.29,30.17,7,2,12,0.00
2013-5-6,72.1,52.9,32.9,45.1,33.7,23.0,89,56,16,30.26,30.11,7,2,9,0.00
2013-5-7,79.7,62.7,42.6,51.6,44.2,37.1,90,57,23,30.14,30.06,7,3,12,0.00
2013-5-8,75.9,60.5,49.6,59.3,54.0,47.0,93,80,52,30.17,30.03,8,2,13,0.18
2013-5-9,70.9,60.0,32.0,58.0,54.6,-31.6,94,84,5,30.03,29.88,5,1,7,0.09
2013-5-10,79.3,63.5,48.0,58.6,52.2,46.4,95,70,38,29.97,29.91,6,2,10,0.05
2013-5-11,61.3,58.7,55.6,59.2,55.6,50.6,97,90,71,29.91,29.70,10,4,14,1.29
2013-5-12,68.0,54.5,32.0,56.9,45.0,-31.6,97,73,5,29.79,29.61,15,4,18,0.09
2013-5-13,54.1,43.6,32.0,33.0,27.9,-31.6,78,55,5,30.03,29.79,10,4,14,0.00
2013-5-14,56.8,45.5,36.3,34.4,29.8,27.1,74,56,34,30.03,29.97,8,3,12,0.00
2013-5-15,64.2,45.9,30.0,48.5,37.0,-31.6,93,75,5,30.03,29.67,14,3,17,0.14
2013-5-16,76.5,61.2,43.9,48.0,38.9,28.2,94,52,23,29.82,29.67,17,6,24,0.00
2013-5-17,63.5,49.4,32.0,42.9,37.0,-31.6,77,63,5,30.17,29.82,12,4,15,0.00
2013-5-18,72.5,57.4,38.8,45.0,39.1,32.9,82,54,28,30.29,30.17,7,2,12,0.00
2013-5-19,70.9,55.3,32.0,54.5,47.5,-31.6,94,77,5,30.32,30.17,9,2,12,0.18
2013-5-20,79.5,63.8,52.3,64.7,57.4,50.7,96,81,56,30.17,29.97,6,1,10,0.03
2013-5-21,88.3,65.5,32.0,68.5,57.5,-31.6,96,78,5,30.06,29.85,8,3,13,0.52
2013-5-22,73.2,58.4,32.0,65.5,55.1,-31.6,96,90,5,30.00,29.85,6,1,8,1.19
2013-5-23,70.9,61.7,53.8,67.3,60.1,52.3,98,95,86,29.91,29.79,10,4,14,1.26
2013-5-24,66.0,56.4,42.8,63.9,54.3,41.2,100,93,80,29.85,29.67,12,5,19,0.23
2013-5-25,49.5,41.3,35.6,46.3,40.1,35.1,98,96,84,29.85,29.73,14,8,20,0.34
2013-5-26,54.5,43.8,32.0,43.2,37.6,-31.6,99,81,5,30.08,29.73,16,8,23,0.13
2013-5-27,68.9,53.1,32.0,44.9,37.7,-31.6,95,62,5,30.17,30.08,10,3,18,0.00
2013-5-28,75.7,57.6,40.5,48.6,41.0,35.4,84,59,29,30.20,30.14,6,2,10,0.00
2013-5-29,74.7,61.2,54.1,64.5,57.0,48.3,93,86,69,30.14,30.00,6,1,11,0.78
2013-5-30,85.1,70.7,58.8,69.0,62.2,57.7,97,77,48,30.11,30.03,9,2,15,0.00
2013-5-31,90.5,76.0,59.9,70.4,62.3,57.6,95,66,38,30.11,29.97,7,2,13,0.00
2013-6-1,90.5,75.0,61.9,69.5,64.3,58.3,90,72,41,30.00,29.88,9,3,13,0.09
2013-6-2,86.9,73.1,63.3,71.5,65.7,61.3,94,79,53,29.91,29.73,13,4,20,0.16
2013-6-3,76.1,65.1,50.4,64.9,57.5,41.5,95,78,52,29.88,29.79,13,2,14,0.17
2013-6-4,69.3,56.8,32.0,46.7,42.0,-31.6,78,60,5,30.11,29.88,10,4,18,0.00
2013-6-5,75.6,59.8,45.7,49.7,45.8,40.9,88,63,36,30.20,30.08,6,1,8,0.00
2013-6-6,74.3,60.6,49.3,54.2,49.4,45.6,88,69,42,30.17,30.08,6,1,9,0.10
2013-6-7,52.2,50.8,48.0,50.9,49.0,47.2,97,94,86,30.08,29.82,6,1,9,1.72
2013-6-8,74.8,58.1,32.0,65.6,53.5,-31.6,98,87,5,30.03,29.67,8,3,13,1.02
2013-6-9,77.0,63.9,32.0,58.3,52.9,-31.6,95,71,5,30.17,30.03,10,2,16,0.00
2013-6-10,72.5,60.0,32.0,59.3,54.4,-31.6,96,83,5,30.20,30.00,5,0,8,0.87
2013-6-11,61.7,55.6,32.0,57.1,53.5,-31.6,97,93,5,29.97,29.58,7,1,13,1.16
2013-6-12,68.2,57.3,51.6,56.7,52.8,47.3,97,86,63,29.85,29.58,14,4,17,0.02
2013-6-13,59.5,52.2,46.6,56.3,50.0,44.9,97,92,85,29.85,29.70,2,0,5,1.16
2013-6-14,72.9,58.6,46.8,60.1,52.2,46.0,98,81,51,29.82,29.67,5,1,10,0.67
2013-6-15,76.5,63.5,32.0,51.7,46.7,-31.6,87,58,5,29.97,29.82,9,3,15,0.00
2013-6-16,72.7,61.6,32.0,57.8,50.9,-31.6,83,69,5,29.97,29.73,7,1,11,0.00
2013-6-17,81.9,64.4,32.0,63.6,55.7,-31.6,93,77,5,29.91,29.82,10,2,16,0.16
2013-6-18,66.9,58.0,32.0,61.7,55.4,-31.6,96,92,5,29.94,29.91,1,0,3,0.44
2013-6-19,73.0,60.2,32.0,56.1,47.9,-31.6,97,68,5,30.14,29.94,6,2,10,0.00
2013-6-20,77.4,63.1,46.0,54.6,47.1,41.7,90,60,33,30.26,30.14,6,1,9,0.00
2013-6-21,81.9,67.1,32.0,60.7,51.8,-31.6,88,62,5,30.26,30.20,6,1,9,0.00
2013-6-22,83.5,69.8,32.0,65.9,57.9,-31.6,88,68,5,30.23,30.11,8,2,12,0.00
2013-6-23,88.7,74.2,60.3,72.2,63.5,54.4,85,70,55,30.17,30.00,8,3,12,0.00
2013-6-24,91.6,76.4,32.0,72.4,66.3,-31.6,94,74,5,30.06,29.94,8,2,13,0.06
2013-6-25,89.1,73.4,32.0,71.5,64.4,-31.6,95,77,5,29.97,29.76,8,2,12,0.38
2013-6-26,80.6,70.1,32.0,70.2,64.4,-31.6,96,84,5,29.88,29.76,6,1,9,0.01
2013-6-27,79.0,68.7,32.0,69.4,64.5,-31.6,96,87,5,29.88,29.73,5,1,7,0.00
2013-6-28,81.5,66.5,32.0,72.6,62.8,-31.6,98,89,5,29.76,29.50,10,3,14,1.11
2013-6-29,81.7,71.6,66.2,70.2,66.3,63.5,97,84,62,29.73,29.52,10,4,17,0.07
2013-6-30,84.7,72.8,65.8,71.5,67.2,64.0,95,83,61,29.94,29.73,7,2,12,0.00
2013-7-1,73.9,70.0,32.0,71.5,67.3,-31.6,96,92,5,30.08,29.94,7,0,10,0.58
2013-7-2,81.7,72.9,32.0,73.0,68.7,-31.6,97,88,5,30.17,30.06,10,3,13,0.01
2013-7-3,84.7,74.3,64.2,73.1,68.3,62.0,96,82,66,30.20,30.14,6,2,9,0.00
2013-7-4,89.6,78.1,32.0,74.1,69.9,-31.6,95,78,5,30.23,30.11,7,2,13,0.00
2013-7-5,90.7,78.9,32.0,75.1,69.8,-31.6,95,75,5,30.20,30.06,6,2,12,0.00
2013-7-6,87.6,76.6,68.7,72.2,66.9,-31.6,94,74,49,30.11,30.03,9,2,15,0.00
2013-7-7,90.1,74.2,65.7,73.7,66.6,59.7,91,78,55,30.06,29.94,3,0,9,0.01
2013-7-8,87.3,75.0,32.0,72.6,67.6,-31.6,95,80,5,30.08,29.94,7,2,12,0.00
2013-7-9,83.3,71.0,32.0,71.3,65.0,-31.6,93,83,5,30.11,30.06,3,0,6,0.00
2013-7-10,84.4,70.6,32.0,73.9,67.4,-31.6,96,90,5,30.08,29.79,9,2,12,0.30
2013-7-11,82.9,73.0,63.5,71.6,68.0,59.9,97,85,63,29.97,29.79,5,1,8,0.00
2013-7-12,80.6,68.6,59.2,64.1,59.1,54.8,91,73,54,30.20,29.97,5,1,11,0.00
2013-7-13,75.9,68.4,32.0,69.2,62.0,-31.6,93,80,5,30.32,30.20,3,0,5,0.03
2013-7-14,87.6,75.9,66.4,72.5,68.8,64.6,95,80,58,30.32,30.23,6,1,8,0.00
2013-7-15,90.5,76.7,65.8,73.3,67.5,64.1,95,75,48,30.23,30.14,6,2,9,0.00
2013-7-16,91.8,77.3,32.0,70.5,65.0,-31.6,87,68,5,30.20,30.14,8,2,12,0.00
2013-7-17,91.9,78.2,66.7,72.5,67.2,62.4,86,71,48,30.20,30.03,5,1,9,0.00
2013-7-18,92.8,80.5,32.0,73.4,68.5,-31.6,91,69,5,30.06,29.97,6,1,10,0.00
2013-7-19,92.8,80.5,69.6,74.2,70.0,65.5,92,72,49,30.00,29.76,9,3,13,0.00
2013-7-20,88.3,76.0,32.0,72.8,65.4,-31.6,81,71,5,29.85,26.95,7,2,11,0.00
2013-7-21,82.6,71.3,59.9,64.8,61.1,56.4,91,72,51,30.00,29.85,2,0,6,0.00
2013-7-22,83.8,70.8,60.6,69.5,63.9,58.5,94,80,58,30.03,29.88,5,1,8,0.01
2013-7-23,79.5,68.8,63.5,74.8,66.1,62.3,97,92,76,29.88,29.58,7,0,8,1.89
2013-7-24,78.4,69.4,55.8,68.8,61.8,49.0,97,78,56,29.97,29.64,8,2,14,0.00
2013-7-25,72.5,59.6,50.7,57.4,51.6,44.3,91,75,57,30.11,27.04,5,1,8,0.01
2013-7-26,68.9,61.9,57.7,62.0,58.2,54.9,96,88,75,30.08,30.00,8,1,10,0.11
2013-7-27,82.2,66.6,32.0,66.0,58.5,-31.6,96,78,5,30.06,30.00,5,1,8,0.00
2013-7-28,82.2,68.8,57.2,66.7,62.0,55.2,95,81,58,30.03,29.97,3,0,6,0.00
2013-7-29,84.0,72.0,64.0,68.3,63.2,54.8,94,76,49,30.08,30.00,7,2,12,0.00
2013-7-30,79.3,67.5,57.0,58.8,54.3,50.4,80,64,44,30.11,30.06,7,3,13,0.00
2013-7-31,80.2,66.7,54.3,60.3,56.3,51.3,93,71,44,30.14,30.06,5,1,7,0.00
2013-8-1,79.7,63.2,32.0,65.1,58.6,-31.6,96,86,5,30.06,29.88,8,1,12,0.84
2013-8-2,79.5,67.9,32.0,66.7,58.8,-31.6,97,76,5,29.91,29.82,8,2,14,0.18
2013-8-3,78.3,65.9,32.0,61.7,55.3,-31.6,93,71,5,29.88,29.79,8,2,13,0.00
2013-8-4,77.2,63.8,53.8,58.9,52.5,48.5,86,68,43,29.91,29.82,7,3,13,0.00
2013-8-5,72.9,59.9,51.1,48.9,46.4,43.1,88,64,36,30.06,29.91,9,4,14,0.00
2013-8-6,77.5,61.3,46.4,54.2,48.7,42.0,87,66,41,30.14,30.06,5,1,10,0.00
2013-8-7,78.1,64.4,32.0,60.2,53.9,-31.6,91,71,5,30.17,30.08,7,2,11,0.00
2013-8-8,79.0,69.4,62.2,68.9,64.2,57.7,96,84,69,30.08,30.03,8,3,11,0.01
2013-8-9,72.1,68.9,66.2,71.2,67.6,65.3,98,96,90,30.03,29.79,8,2,13,3.37
2013-8-10,79.0,66.9,30.7,65.6,58.1,-32.5,98,77,5,30.03,28.43,10,3,15,0.01
2013-8-11,76.5,62.7,48.7,58.4,52.1,46.2,93,70,47,30.08,30.03,6,1,10,0.00
2013-8-12,77.4,64.1,30.7,61.9,55.2,-32.5,93,75,5,30.06,28.43,7,1,14,0.00
2013-8-13,70.7,64.5,30.7,67.3,61.6,-32.5,95,91,5,29.94,29.70,5,1,14,0.17
2013-8-14,69.8,59.3,30.7,61.0,51.9,-32.5,96,78,5,29.97,29.70,13,4,20,0.00
2013-8-15,73.8,58.1,46.8,56.1,49.6,45.0,95,76,46,30.11,29.97,8,1,15,0.00
2013-8-16,76.6,62.2,49.6,57.7,51.1,46.3,91,70,43,30.17,30.11,9,1,13,0.00
2013-8-17,78.6,64.1,49.1,61.9,53.9,46.3,93,72,39,30.29,30.17,3,0,7,0.00
2013-8-18,79.0,65.2,54.5,63.7,58.1,52.1,93,79,51,30.26,30.11,3,0,5,0.00
2013-8-19,78.8,65.9,54.7,63.6,58.5,53.0,95,79,56,30.11,30.00,6,1,9,0.00
2013-8-20,82.2,68.0,56.1,63.8,58.9,53.5,93,75,49,30.11,28.79,5,1,7,0.00
2013-8-21,84.0,69.6,57.7,66.5,60.0,55.3,93,73,49,30.17,30.06,5,1,8,0.00
2013-8-22,84.0,71.2,59.9,69.8,64.4,57.9,94,80,54,30.06,29.85,7,2,10,0.00
2013-8-23,77.2,66.3,30.7,65.1,56.2,-32.5,93,72,5,30.14,29.88,7,3,11,0.00
2013-8-24,76.5,60.6,30.7,53.3,47.8,-32.5,89,66,5,30.32,29.61,3,1,6,0.11
2013-8-25,77.9,62.8,30.7,59.2,50.7,-32.5,93,69,5,30.38,25.48,6,1,10,0.00
2013-8-26,77.4,66.4,58.3,66.4,60.5,53.6,93,82,67,30.17,29.91,6,1,8,0.17
2013-8-27,82.6,70.9,30.7,69.5,65.3,-32.5,96,84,5,29.94,29.85,2,0,5,0.02
2013-8-28,85.1,70.3,61.5,72.3,65.2,60.1,96,85,59,29.97,29.88,5,0,6,0.00
2013-8-29,69.3,62.6,57.6,66.0,60.4,55.8,97,92,85,30.08,29.94,3,0,8,0.48
2013-8-30,80.8,67.4,30.7,68.0,61.8,-32.5,97,84,5,30.03,29.85,5,1,9,0.00
2013-8-31,77.5,68.9,30.7,72.0,66.2,-32.5,97,93,5,31.09,25.77,7,1,10,0.75
2013-9-1,81.5,71.0,30.7,73.1,67.4,-32.5,98,90,5,29.91,27.25,8,1,16,0.38
2013-9-2,77.4,70.2,30.7,73.0,67.1,-32.5,97,91,5,31.09,29.73,5,1,8,0.54
2013-9-3,75.0,65.6,56.7,67.5,61.6,-32.5,97,87,75,29.85,29.73,6,0,7,0.00
2013-9-4,75.7,62.6,30.7,59.4,53.6,-32.5,97,75,5,29.94,29.82,7,2,14,0.00
2013-9-5,68.5,58.1,47.8,57.3,50.4,40.6,92,77,45,30.14,29.88,7,1,8,0.00
2013-9-6,65.3,51.6,30.7,46.1,40.8,-32.5,90,69,5,30.23,28.43,5,1,7,0.00
2013-9-7,74.8,58.3,44.8,56.6,48.8,41.4,90,72,44,30.08,29.88,5,1,8,0.00
2013-9-8,69.3,58.1,30.7,59.7,47.7,-32.5,89,71,5,30.08,29.79,14,3,17,0.01
2013-9-9,66.7,52.0,38.3,48.7,42.6,35.3,91,72,43,30.20,30.08,6,1,8,0.00
2013-9-10,81.7,81.7,81.7,74.9,74.9,74.9,80,80,80,30.08,30.08,3,3,7,0.00
2013-9-11,87.3,79.5,66.7,77.1,72.4,65.0,94,80,66,30.08,29.97,12,3,13,0.59
2013-9-12,77.7,67.0,63.0,74.2,65.7,62.3,98,96,88,29.97,29.67,7,1,10,2.69
2013-9-13,72.0,62.7,54.0,66.8,60.4,51.4,99,92,76,29.79,29.64,8,2,15,0.09
2013-9-14,63.1,54.1,47.1,53.2,49.4,45.6,96,85,68,30.06,29.79,7,3,15,0.00
2013-9-15,68.2,53.4,30.7,52.3,46.7,-32.5,97,80,5,30.14,28.43,5,1,9,0.00
2013-9-16,64.2,54.0,39.9,56.1,48.4,34.9,95,82,68,30.23,30.03,9,3,14,0.07
2013-9-17,60.6,46.5,30.7,44.0,37.5,-32.5,92,73,5,30.41,30.23,5,1,7,0.00
2013-9-18,68.2,57.0,41.0,51.3,46.0,38.1,95,69,43,30.32,30.14,3,1,7,0.00
2013-9-19,72.9,58.8,45.0,57.3,49.6,42.4,95,74,45,30.14,30.06,3,0,5,0.00
2013-9-20,76.1,59.1,45.7,59.7,51.8,44.1,96,79,47,30.08,30.00,3,0,6,0.00
2013-9-21,70.2,61.3,30.7,61.4,55.8,-32.5,96,83,5,30.03,26.07,13,6,18,0.00
2013-9-22,64.6,57.7,47.3,61.7,51.9,41.4,96,82,62,29.85,26.87,9,4,13,1.15
2013-9-23,57.7,46.9,30.7,43.3,39.2,-32.5,87,76,5,30.00,29.85,13,5,18,0.00
2013-9-24,62.2,49.2,38.5,45.1,39.9,35.2,89,72,47,30.00,29.85,10,4,13,0.00
2013-9-25,66.2,52.6,40.8,52.2,45.6,38.1,92,78,59,30.00,29.88,6,1,9,0.00
2013-9-26,63.3,53.5,30.7,49.1,46.0,-32.5,89,77,5,30.11,26.66,5,1,8,0.00
2013-9-27,62.4,53.8,30.7,53.0,48.6,-32.5,91,84,5,30.26,30.11,3,0,5,0.00
2013-9-28,71.6,55.0,30.7,56.8,48.5,-32.5,97,81,5,30.32,30.26,3,0,5,0.00
2013-9-29,68.9,53.7,43.0,54.8,46.8,41.6,96,80,51,30.23,30.08,3,0,6,0.00
2013-9-30,68.7,53.4,39.0,52.9,46.0,37.0,95,78,51,30.08,29.97,5,0,7,0.00
2013-10-1,72.5,57.3,45.5,56.6,51.0,43.3,96,81,56,29.97,29.88,7,1,11,0.00
2013-10-2,74.1,62.5,30.7,60.9,54.5,-32.5,95,77,5,29.97,29.88,9,2,13,0.00
2013-10-3,71.8,58.2,47.1,56.0,49.6,44.5,93,75,43,30.11,29.97,3,0,6,0.00
2013-10-4,59.5,53.8,30.7,56.9,50.9,-32.5,97,91,5,30.08,27.84,1,0,3,1.36
2013-10-5,65.8,58.4,52.7,59.5,55.8,51.9,98,91,76,30.11,30.06,1,0,3,0.06
2013-10-6,56.8,51.9,30.7,55.5,50.8,-32.5,98,97,5,30.20,30.08,5,1,9,0.75
2013-10-7,70.5,58.5,30.7,68.0,56.9,-32.5,99,95,5,30.11,29.76,16,4,22,0.96
2013-10-8,60.3,49.6,30.7,49.8,43.1,-32.5,97,80,5,30.35,29.32,8,2,14,0.00
2013-10-9,59.7,45.6,30.7,44.3,37.6,-32.5,93,77,5,30.44,25.77,3,0,7,0.00
2013-10-10,59.0,46.9,30.7,48.5,42.2,-32.5,96,85,5,30.32,30.17,1,0,3,0.00
2013-10-11,68.2,52.9,30.7,50.1,42.5,-32.5,94,72,5,30.17,30.08,3,0,7,0.00
2013-10-12,53.6,49.8,45.7,51.3,47.0,41.8,95,90,82,30.35,30.14,2,0,5,0.01
2013-10-13,59.4,49.1,41.9,49.8,45.1,40.0,96,87,69,30.41,30.35,5,0,7,0.00
2013-10-14,63.1,48.7,30.7,50.8,42.9,-32.5,97,82,5,30.35,30.20,3,0,6,0.00
2013-10-15,66.0,56.3,49.5,56.0,50.5,46.2,91,81,68,30.26,30.14,3,0,5,0.00
2013-10-16,58.8,51.0,30.7,49.7,46.5,-32.5,95,86,5,30.14,29.02,1,0,4,0.00
2013-10-17,67.5,56.7,30.7,58.0,49.4,-32.5,97,79,5,29.91,29.70,7,1,10,0.00
2013-10-18,61.3,54.1,30.7,57.3,45.9,-32.5,97,76,5,29.91,26.07,12,4,21,0.14
2013-10-19,62.2,49.4,30.7,46.1,39.8,-32.5,90,71,5,29.94,27.84,8,1,12,0.00
2013-10-20,55.9,47.4,40.8,45.3,37.0,31.0,94,69,44,30.00,29.67,14,4,17,0.03
2013-10-21,61.2,47.0,30.7,43.5,36.4,-32.5,90,69,5,30.08,29.97,6,2,10,0.00
2013-10-22,57.7,48.1,30.7,50.0,42.3,-32.5,94,81,5,29.97,29.73,8,2,16,0.00
2013-10-23,49.6,41.1,30.7,36.4,31.4,-32.5,89,70,5,29.76,29.58,6,1,9,0.00
2013-10-24,47.3,39.3,29.8,32.6,28.6,-32.5,88,67,44,29.94,29.64,10,3,15,0.00
2013-10-25,46.6,36.6,29.8,31.6,27.0,-32.5,89,70,5,30.08,29.85,10,3,14,0.00
2013-10-26,51.3,39.5,29.5,35.8,28.5,23.9,91,67,42,30.11,29.82,13,4,20,0.00
2013-10-27,49.8,42.5,30.7,36.8,30.3,-32.5,73,63,5,30.03,29.76,10,3,17,0.00
2013-10-28,53.4,38.8,29.3,36.7,28.8,-32.5,87,69,44,30.29,30.03,12,3,19,0.00
2013-10-29,43.0,31.9,23.9,26.9,18.6,-32.5,78,60,5,30.38,30.29,6,1,10,0.00
2013-10-30,50.2,36.6,27.1,37.7,27.4,-32.5,87,71,5,30.29,30.14,7,1,11,0.00
2013-10-31,55.6,43.3,30.7,55.0,41.5,-32.5,98,94,5,30.17,29.76,17,3,22,0.53
2013-11-1,60.3,56.4,49.8,59.4,54.5,43.6,99,93,78,29.76,29.44,20,10,24,0.44
2013-11-2,60.1,48.6,30.7,45.9,41.7,-32.5,94,79,5,29.76,29.61,8,2,10,0.07
2013-11-3,41.2,34.4,25.2,39.6,24.7,-32.5,94,69,5,30.35,29.76,9,5,14,0.01
2013-11-4,38.5,27.9,20.1,19.7,15.5,12.5,73,60,39,30.62,30.35,5,1,7,0.00
2013-11-5,45.1,33.9,23.2,32.4,25.3,-32.5,82,71,56,30.62,30.44,7,1,12,0.00
2013-11-6,55.6,45.9,30.7,44.6,38.9,-32.5,90,78,5,30.79,30.00,13,5,17,0.00
2013-11-7,54.9,46.7,30.7,53.2,43.5,-32.5,94,89,5,30.00,29.70,12,7,20,0.13
2013-11-8,41.7,32.8,26.6,34.1,23.8,-32.5,84,71,5,30.03,29.79,13,4,18,0.00
2013-11-9,40.8,32.6,24.6,27.0,22.8,17.8,78,68,54,30.14,29.97,8,2,13,0.00
2013-11-10,46.0,39.8,32.9,38.7,33.0,26.8,92,77,69,29.94,29.70,16,4,21,0.03
2013-11-11,46.6,39.2,32.0,29.3,26.7,23.7,74,61,44,30.06,29.85,14,5,19,0.00
2013-11-12,40.3,29.5,20.8,30.9,20.0,-32.5,87,69,5,30.11,28.73,10,5,16,0.00
2013-11-13,29.8,22.8,16.9,15.8,12.2,9.1,78,64,46,30.23,30.08,10,3,13,0.03
2013-11-14,45.0,33.6,22.8,25.4,19.7,-32.5,70,58,5,30.08,30.00,9,3,13,0.00
2013-11-15,53.1,38.8,28.8,26.5,20.2,15.3,64,48,29,30.14,30.06,7,2,10,0.00
2013-11-16,54.3,42.4,33.6,31.1,27.9,25.3,73,58,38,30.26,30.14,3,0,6,0.00
2013-11-17,49.6,41.9,32.7,47.6,38.0,-32.5,95,86,73,30.26,29.82,6,1,10,0.03
2013-11-18,59.2,54.7,49.3,56.0,51.7,42.5,97,90,56,29.79,29.32,14,8,20,0.47
2013-11-19,37.2,31.4,24.3,24.0,17.8,-32.5,68,57,5,30.23,29.82,15,7,20,0.47
2013-11-20,35.1,26.3,19.6,17.9,13.7,11.3,74,59,44,30.53,27.43,9,3,14,0.00
2013-11-21,41.5,30.1,17.1,26.2,18.3,10.4,76,62,43,30.56,30.32,6,1,11,0.00
2013-11-22,42.6,38.7,30.7,41.2,35.4,-32.5,96,89,5,30.32,29.79,5,0,8,0.20
2013-11-23,42.6,32.2,22.8,41.6,23.7,-32.5,96,72,5,29.91,29.73,12,5,19,0.00
2013-11-24,22.6,17.3,12.9,13.0,2.9,-2.9,75,54,34,30.11,29.76,18,11,28,0.00
2013-11-25,28.2,19.5,9.5,12.2,3.9,-3.2,58,51,35,30.26,30.11,9,4,14,0.00
2013-11-26,34.2,28.9,23.9,29.6,20.9,-32.5,92,73,5,30.23,29.97,6,2,6,0.16
2013-11-27,48.7,39.4,30.2,48.2,38.6,29.2,98,97,92,29.97,29.26,13,5,23,2.69
2013-11-28,35.6,23.1,15.4,29.2,14.8,7.0,96,71,51,30.32,29.02,15,6,22,0.00
2013-11-29,27.7,19.3,10.9,14.9,9.9,3.1,82,67,48,30.62,30.32,0,0,0,0.00
2013-11-30,28.0,18.7,6.4,17.2,9.4,1.3,80,67,53,30.68,30.32,0,0,0,0.00
2013-12-1,40.1,31.8,25.3,35.4,27.6,17.2,93,84,71,30.32,29.97,1,0,5,0.03
2013-12-2,38.3,33.7,31.1,36.2,32.0,24.6,95,94,64,29.97,29.85,1,0,1,0.00
2013-12-3,41.5,33.0,28.6,37.1,30.8,24.6,96,92,64,29.91,29.82,7,1,8,0.01
2013-12-4,38.5,30.4,25.7,29.4,26.1,23.2,96,85,64,30.11,29.91,7,1,10,0.00
2013-12-5,49.3,37.7,27.0,48.7,35.5,23.6,98,92,64,30.14,29.88,9,2,16,0.07
2013-12-6,49.3,41.4,31.3,48.7,40.0,24.6,98,95,64,30.11,29.82,9,3,16,0.20
2013-12-7,35.6,27.6,20.5,30.8,24.7,16.4,96,89,64,30.35,25.18,8,1,14,0.00
2013-12-8,35.6,22.8,16.2,24.6,17.2,12.7,88,79,64,30.47,30.35,7,0,12,0.00
2013-12-9,35.6,27.8,20.8,30.7,25.3,16.8,96,91,64,30.38,29.85,0,0,0,0.00
2013-12-10,32.2,26.0,16.9,29.9,23.3,12.6,96,89,81,29.88,29.73,0,0,0,0.00
2013-12-11,28.4,19.5,14.0,20.5,14.5,10.6,88,81,63,30.08,29.88,0,0,0,0.00
2013-12-12,35.6,13.3,8.1,24.6,5.9,0.0,90,73,52,30.17,29.94,0,0,0,0.00
2013-12-13,24.6,13.7,5.9,18.7,9.0,1.6,86,81,77,30.26,29.88,0,0,0,0.00
2013-12-14,14.9,8.2,2.7,9.1,1.2,-3.6,88,73,56,30.47,30.06,6,1,6,0.00
2013-12-15,35.6,19.0,12.0,24.6,15.8,8.9,90,87,64,30.06,29.44,13,4,15,0.11
2013-12-16,35.6,16.4,8.4,24.6,8.5,0.9,88,71,55,30.08,29.64,6,5,6,0.00
2013-12-17,35.6,6.8,-4.0,24.6,1.9,-8.9,86,80,64,30.11,29.85,51,3,51,0.00
2013-12-18,35.6,19.3,11.7,24.6,14.8,8.3,87,83,64,29.91,29.85,9,1,12,0.00
2013-12-19,35.6,27.2,21.9,24.8,20.4,17.0,81,76,63,30.06,29.88,1,0,7,0.04
2013-12-20,44.4,34.8,27.5,33.0,28.4,22.4,84,77,61,30.06,29.88,6,0,8,0.00
2013-12-21,50.7,41.5,34.9,42.3,36.5,29.9,96,83,68,29.91,29.82,7,3,11,0.00
2013-12-22,54.1,45.2,33.1,53.9,44.6,13.2,99,98,25,29.94,26.66,10,4,17,0.00
2013-12-23,36.7,33.5,31.5,36.4,32.8,0.9,99,98,25,30.06,29.91,15,2,51,0.00
2013-12-24,31.5,26.1,13.1,31.2,20.0,2.5,99,78,60,30.11,30.00,8,4,12,0.00
2013-12-25,21.0,14.4,7.0,13.7,4.4,-0.4,73,64,53,30.41,30.11,9,3,10,0.00
2013-12-26,28.4,22.1,15.1,24.7,17.3,6.4,91,82,68,30.35,30.03,7,1,9,0.00
2013-12-27,29.8,24.3,18.5,21.2,18.6,3.0,92,79,48,30.17,30.11,49,3,50,0.00
2013-12-28,38.8,29.4,19.9,28.8,23.4,16.8,92,79,65,30.11,29.94,8,3,13,0.00
2013-12-29,39.2,32.7,27.9,32.6,28.7,23.9,98,85,69,29.97,29.47,8,2,12,0.00
2013-12-30,33.1,26.2,10.6,32.2,20.8,5.1,98,80,48,30.08,29.52,13,4,20,0.00
2013-12-31,20.5,13.5,5.2,12.0,6.8,-6.8,85,75,48,30.06,29.94,25,0,25,0.00
2014-1-1,22.5,15.5,10.6,10.1,6.7,-1.5,78,68,48,30.26,30.06,3,0,13,0.00
2014-1-2,15.4,8.6,-1.3,10.2,4.0,-5.7,84,81,77,30.23,29.76,0,0,0,0.00